createdAt,value
2022-11-21T00:00:49.731Z,93369.00
2022-11-21T00:02:51.541Z,93369.63
2022-11-21T00:04:53.156Z,93364.41
2022-11-21T00:06:57.908Z,93359.56
2022-11-21T00:08:59.550Z,93353.13
2022-11-21T00:11:01.316Z,93340.41
2022-11-21T00:13:03.195Z,93339.63
2022-11-21T00:15:05.969Z,93346.94
2022-11-21T00:17:07.621Z,93333.19
2022-11-21T00:19:09.575Z,93326.13
2022-11-21T00:21:16.098Z,93331.38
2022-11-21T00:23:17.828Z,93337.22
2022-11-21T00:25:19.457Z,93324.94
2022-11-21T00:27:21.040Z,93316.47
2022-11-21T00:29:22.797Z,93322.25
2022-11-21T00:31:25.244Z,93318.81
2022-11-21T00:33:26.874Z,93309.28
2022-11-21T00:35:34.325Z,93327.75
2022-11-21T00:37:36.024Z,93325.97
2022-11-21T00:39:37.661Z,93299.38
2022-11-21T00:41:39.223Z,93298.78
2022-11-21T00:43:40.864Z,93297.59
2022-11-21T00:45:45.335Z,93318.72
2022-11-21T00:47:46.964Z,93299.66
2022-11-21T00:49:48.550Z,93315.78
2022-11-21T00:51:50.258Z,93299.69
2022-11-21T00:53:51.808Z,93287.03
2022-11-21T00:55:53.447Z,93271.91
2022-11-21T00:57:54.997Z,93274.56
2022-11-21T00:59:56.658Z,93283.63
2022-11-21T01:01:58.335Z,93288.91
2022-11-21T01:03:59.976Z,93282.84
2022-11-21T01:06:12.561Z,93288.47
2022-11-21T01:08:14.265Z,93267.91
2022-11-21T01:10:15.871Z,93247.88
2022-11-21T01:12:17.518Z,93283.53
2022-11-21T01:14:19.146Z,93252.94
2022-11-21T01:16:23.845Z,93271.56
2022-11-21T01:18:35.305Z,93268.59
2022-11-21T01:20:40.766Z,93281.81
2022-11-21T01:22:42.407Z,93268.53
2022-11-21T01:24:44.016Z,93277.78
2022-11-21T01:26:45.722Z,93285.38
2022-11-21T01:28:47.701Z,93284.75
2022-11-21T01:30:49.269Z,93297.75
2022-11-21T01:32:51.186Z,93289.28
2022-11-21T01:34:58.896Z,93283.63
2022-11-21T01:37:01.341Z,93281.97
2022-11-21T01:39:05.501Z,93272.50
2022-11-21T01:41:08.011Z,93264.16
2022-11-21T01:43:15.575Z,93241.09
2022-11-21T01:45:48.400Z,93262.78
2022-11-21T01:47:50.020Z,93262.09
2022-11-21T01:49:52.522Z,93261.50
2022-11-21T01:52:01.719Z,93259.38
2022-11-21T01:54:09.405Z,93255.41
2022-11-21T01:56:11.176Z,93272.56
2022-11-21T01:58:13.213Z,93250.28
2022-11-21T02:00:22.062Z,93248.44
2022-11-21T02:02:28.964Z,93251.13
2022-11-21T02:04:32.069Z,93260.47
2022-11-21T02:06:34.634Z,93256.78
2022-11-21T02:08:37.234Z,93259.06
2022-11-21T02:10:40.563Z,93261.94
2022-11-21T02:12:50.449Z,93251.94
2022-11-21T02:14:53.159Z,93227.72
2022-11-21T02:16:57.796Z,93249.50
2022-11-21T02:18:59.354Z,93249.38
2022-11-21T02:21:15.296Z,93235.25
2022-11-21T02:24:03.220Z,93250.78
2022-11-21T02:26:05.020Z,93250.84
2022-11-21T02:28:08.658Z,93250.91
2022-11-21T02:30:10.953Z,93241.25
2022-11-21T02:32:24.466Z,93244.91
2022-11-21T02:34:26.532Z,93246.09
2022-11-21T02:36:37.344Z,93236.56
2022-11-21T02:38:39.083Z,93257.31
2022-11-21T02:40:44.463Z,93243.16
2022-11-21T02:42:52.554Z,93236.09
2022-11-21T02:45:01.777Z,93232.06
2022-11-21T02:47:03.350Z,93244.34
2022-11-21T02:49:07.959Z,93238.78
2022-11-21T02:51:09.579Z,93232.56
2022-11-21T02:53:14.262Z,93211.78
2022-11-21T02:55:16.019Z,93214.59
2022-11-21T02:57:17.642Z,93232.56
2022-11-21T02:59:19.290Z,93180.91
2022-11-21T03:01:21.020Z,93173.81
2022-11-21T03:03:22.896Z,93179.28
2022-11-21T03:05:24.876Z,93183.16
2022-11-21T03:07:26.566Z,93154.16
2022-11-21T03:09:28.236Z,93203.34
2022-11-21T03:11:29.858Z,93204.38
2022-11-21T03:13:37.524Z,93163.47
2022-11-21T03:15:39.269Z,93173.53
2022-11-21T03:17:41.444Z,93201.38
2022-11-21T03:19:43.070Z,93190.28
2022-11-21T03:21:44.698Z,93186.03
2022-11-21T03:23:46.297Z,93184.00
2022-11-21T03:25:47.827Z,93202.59
2022-11-21T03:27:53.703Z,93213.06
2022-11-21T03:29:55.261Z,93187.03
2022-11-21T03:31:56.954Z,93192.69
2022-11-21T03:33:58.610Z,93192.09
2022-11-21T03:36:00.200Z,93202.81
2022-11-21T03:38:01.829Z,93182.38
2022-11-21T03:40:03.856Z,93213.28
2022-11-21T03:42:05.519Z,93190.84
2022-11-21T03:44:09.702Z,93171.06
2022-11-21T03:46:11.455Z,93193.69
2022-11-21T03:48:13.070Z,93183.78
2022-11-21T03:50:18.547Z,93196.91
2022-11-21T03:52:20.226Z,93182.00
2022-11-21T03:54:21.800Z,93173.72
2022-11-21T03:56:23.530Z,93173.91
2022-11-21T03:58:25.131Z,93158.94
2022-11-21T04:00:26.704Z,93162.13
2022-11-21T04:02:28.670Z,93159.25
2022-11-21T04:04:30.558Z,93164.06
2022-11-21T04:06:32.470Z,93161.56
2022-11-21T04:08:34.055Z,93145.56
2022-11-21T04:10:35.695Z,93145.75
2022-11-21T04:12:37.402Z,93155.84
2022-11-21T04:14:39.076Z,93142.47
2022-11-21T04:16:40.912Z,93142.47
2022-11-21T04:18:42.512Z,93143.25
2022-11-21T04:20:44.394Z,93131.03
2022-11-21T04:22:46.030Z,93144.78
2022-11-21T04:24:47.652Z,93142.34
2022-11-21T04:26:49.271Z,93151.13
2022-11-21T04:28:50.817Z,93142.41
2022-11-21T04:30:54.967Z,93154.72
2022-11-21T04:32:57.223Z,93154.72
2022-11-21T04:34:59.077Z,93171.69
2022-11-21T04:37:00.757Z,93157.53
2022-11-21T04:39:02.460Z,93161.56
2022-11-21T04:41:04.958Z,93168.84
2022-11-21T04:43:06.866Z,93146.56
2022-11-21T04:45:09.183Z,93159.47
2022-11-21T04:47:10.847Z,93166.31
2022-11-21T04:49:12.700Z,93154.19
2022-11-21T04:51:14.436Z,93168.31
2022-11-21T04:53:16.062Z,93175.00
2022-11-21T04:55:18.373Z,93169.72
2022-11-21T04:57:19.945Z,93165.91
2022-11-21T04:59:21.587Z,93165.53
2022-11-21T05:01:23.256Z,93175.25
2022-11-21T05:03:24.913Z,93180.56
2022-11-21T05:05:26.589Z,93206.38
2022-11-21T05:07:28.262Z,93186.25
2022-11-21T05:09:29.926Z,93216.41
2022-11-21T05:11:50.215Z,93201.75
2022-11-21T05:13:54.200Z,93184.78
2022-11-21T05:15:58.955Z,93238.72
2022-11-21T05:18:00.578Z,93240.91
2022-11-21T05:20:02.164Z,93235.06
2022-11-21T05:22:03.786Z,93242.53
2022-11-21T05:24:05.594Z,93246.78
2022-11-21T05:26:07.342Z,93225.56
2022-11-21T05:28:09.273Z,93232.56
2022-11-21T05:30:12.081Z,93251.06
2022-11-21T05:32:13.690Z,93265.59
2022-11-21T05:34:15.320Z,93247.66
2022-11-21T05:36:16.988Z,93271.09
2022-11-21T05:38:18.834Z,93259.50
2022-11-21T05:40:20.413Z,93263.00
2022-11-21T05:42:41.896Z,93270.91
2022-11-21T05:44:43.467Z,93280.94
2022-11-21T05:49:04.187Z,93292.81
2022-11-21T05:51:06.138Z,93293.00
2022-11-21T05:53:07.828Z,93314.84
2022-11-21T05:55:09.517Z,93321.81
2022-11-21T05:57:11.183Z,93323.78
2022-11-21T05:59:12.836Z,93374.38
2022-11-21T06:01:15.453Z,93359.25
2022-11-21T06:03:30.281Z,93331.81
2022-11-21T06:05:31.904Z,93350.81
2022-11-21T06:07:33.613Z,93366.75
2022-11-21T06:09:35.504Z,93358.22
2022-11-21T06:11:37.075Z,93359.28
2022-11-21T06:13:38.995Z,93399.03
2022-11-21T06:15:40.649Z,93368.50
2022-11-21T06:17:42.310Z,93381.84
2022-11-21T06:19:43.884Z,93384.41
2022-11-21T06:21:45.466Z,93385.50
2022-11-21T06:23:47.995Z,93380.41
2022-11-21T06:25:56.559Z,93391.94
2022-11-21T06:28:00.285Z,93391.47
2022-11-21T06:30:02.018Z,93392.66
2022-11-21T06:32:03.681Z,93396.38
2022-11-21T06:34:05.326Z,93404.69
2022-11-21T06:36:14.695Z,93408.25
2022-11-21T06:38:18.763Z,93415.75
2022-11-21T06:40:20.374Z,93407.59
2022-11-21T06:42:21.963Z,93415.09
2022-11-21T06:44:23.591Z,93418.34
2022-11-21T06:46:25.224Z,93431.34
2022-11-21T06:48:26.920Z,93439.09
2022-11-21T06:50:29.773Z,93431.66
2022-11-21T06:52:35.526Z,93470.94
2022-11-21T06:54:37.203Z,93465.88
2022-11-21T06:56:38.825Z,93462.63
2022-11-21T06:58:40.507Z,93485.34
2022-11-21T07:00:42.364Z,93498.78
2022-11-21T07:02:44.118Z,93494.53
2022-11-21T07:04:45.957Z,93503.22
2022-11-21T07:06:47.723Z,93512.97
2022-11-21T07:09:17.716Z,93530.50
2022-11-21T07:11:30.327Z,93523.53
2022-11-21T07:13:32.692Z,93526.03
2022-11-21T07:15:34.251Z,93534.06
2022-11-21T07:17:35.889Z,93533.28
2022-11-21T07:19:40.825Z,93545.31
2022-11-21T07:21:43.224Z,93538.69
2022-11-21T07:23:44.798Z,93553.66
2022-11-21T07:25:46.463Z,93549.53
2022-11-21T07:27:48.112Z,93556.75
2022-11-21T07:29:49.728Z,93555.69
2022-11-21T07:31:51.252Z,93550.28
2022-11-21T07:33:52.851Z,93586.06
2022-11-21T07:35:58.339Z,93571.97
2022-11-21T07:38:00.644Z,93587.75
2022-11-21T07:40:02.277Z,93595.44
2022-11-21T07:42:03.903Z,93601.13
2022-11-21T07:44:05.730Z,93604.66
2022-11-21T07:46:07.360Z,93589.94
2022-11-21T07:48:10.145Z,93619.19
2022-11-21T07:50:12.166Z,93604.16
2022-11-21T07:52:13.752Z,93609.13
2022-11-21T07:54:15.372Z,93612.25
2022-11-21T07:56:17.001Z,93616.41
2022-11-21T07:58:18.686Z,93626.78
2022-11-21T08:00:20.421Z,93617.06
2022-11-21T08:02:27.247Z,93625.22
2022-11-21T08:04:28.926Z,93632.91
2022-11-21T08:06:30.535Z,93634.38
2022-11-21T08:08:32.429Z,93636.84
2022-11-21T08:10:36.852Z,93630.91
2022-11-21T08:12:38.601Z,93647.34
2022-11-21T08:14:40.531Z,93652.16
2022-11-21T08:16:42.230Z,93646.97
2022-11-21T08:18:43.861Z,93642.03
2022-11-21T08:20:45.510Z,93653.69
2022-11-21T08:22:47.319Z,93659.75
2022-11-21T08:24:49.036Z,93669.94
2022-11-21T08:26:50.902Z,93667.19
2022-11-21T08:28:58.471Z,93670.00
2022-11-21T08:31:04.801Z,93670.84
2022-11-21T08:33:07.140Z,93667.19
2022-11-21T08:35:09.016Z,93666.81
2022-11-21T08:37:10.601Z,93690.91
2022-11-21T08:39:12.245Z,93678.78
2022-11-21T08:41:32.316Z,93680.09
2022-11-21T08:43:33.914Z,93680.41
2022-11-21T08:45:37.158Z,93673.03
2022-11-21T08:47:38.855Z,93672.06
2022-11-21T08:49:40.577Z,93675.94
2022-11-21T08:51:42.692Z,93694.28
2022-11-21T08:53:44.309Z,93671.94
2022-11-21T08:55:45.885Z,93676.53
2022-11-21T08:57:47.553Z,93675.53
2022-11-21T08:59:49.077Z,93672.66
2022-11-21T09:01:50.726Z,93674.72
2022-11-21T09:03:52.446Z,93674.19
2022-11-21T09:05:56.931Z,93677.25
2022-11-21T09:07:59.053Z,93679.97
2022-11-21T09:10:00.693Z,93679.97
2022-11-21T09:12:02.872Z,93686.44
2022-11-21T09:14:23.067Z,93680.47
2022-11-21T09:16:43.059Z,93702.34
2022-11-21T09:18:44.712Z,93695.75
2022-11-21T09:20:46.425Z,93701.91
2022-11-21T09:22:48.278Z,93699.81
2022-11-21T09:24:49.869Z,93697.16
2022-11-21T09:26:51.484Z,93692.34
2022-11-21T09:28:53.119Z,93693.41
2022-11-21T09:30:54.801Z,93695.50
2022-11-21T09:33:04.613Z,93700.09
2022-11-21T09:35:06.829Z,93695.50
2022-11-21T09:37:08.447Z,93702.38
2022-11-21T09:39:10.305Z,93713.94
2022-11-21T09:41:44.603Z,93706.41
2022-11-21T09:44:09.943Z,93716.75
2022-11-21T09:46:15.313Z,93702.16
2022-11-21T09:48:36.661Z,93709.19
2022-11-21T09:50:49.328Z,93711.13
2022-11-21T09:53:07.011Z,93706.75
2022-11-21T09:55:27.827Z,93721.97
2022-11-21T09:57:34.615Z,93728.41
2022-11-21T09:59:39.003Z,93722.69
2022-11-21T10:01:40.715Z,93728.84
2022-11-21T10:03:45.147Z,93730.13
2022-11-21T10:06:29.593Z,93721.66
2022-11-21T10:08:48.201Z,93737.72
2022-11-21T10:10:58.578Z,93738.72
2022-11-21T10:13:43.491Z,93722.13
2022-11-21T10:15:50.599Z,93728.81
2022-11-21T10:18:10.696Z,93727.66
2022-11-21T10:20:36.323Z,93733.94
2022-11-21T10:23:11.598Z,93737.13
2022-11-21T10:25:15.248Z,93743.13
2022-11-21T10:27:36.575Z,93750.13
2022-11-21T10:29:45.403Z,93742.72
2022-11-21T10:31:47.325Z,93742.28
2022-11-21T10:33:50.758Z,93747.16
2022-11-21T10:35:55.854Z,93741.38
2022-11-21T10:38:01.903Z,93740.00
2022-11-21T10:40:42.631Z,93739.16
2022-11-21T10:43:28.013Z,93753.34
2022-11-21T10:45:29.618Z,93754.75
2022-11-21T10:47:37.579Z,93744.38
2022-11-21T10:49:39.713Z,93778.38
2022-11-21T10:51:47.041Z,93741.06
2022-11-21T10:54:22.506Z,93748.13
2022-11-21T10:56:26.669Z,93751.31
2022-11-21T10:58:42.449Z,93745.31
2022-11-21T11:00:57.486Z,93765.19
2022-11-21T11:03:04.873Z,93746.94
2022-11-21T11:05:19.719Z,93753.78
2022-11-21T11:07:27.422Z,93757.56
2022-11-21T11:09:31.390Z,93755.84
2022-11-21T11:11:32.947Z,93756.50
2022-11-21T11:13:53.726Z,93755.31
2022-11-21T11:16:11.628Z,93756.50
2022-11-21T11:18:14.534Z,93753.84
2022-11-21T11:20:38.179Z,93752.75
2022-11-21T11:22:39.831Z,93748.34
2022-11-21T11:24:56.205Z,93748.00
2022-11-21T11:27:03.395Z,93741.69
2022-11-21T11:29:15.205Z,93743.06
2022-11-21T11:31:17.007Z,93750.22
2022-11-21T11:33:48.032Z,93750.66
2022-11-21T11:35:49.850Z,93747.09
2022-11-21T11:38:00.899Z,93740.50
2022-11-21T11:40:26.870Z,93743.38
2022-11-21T11:42:56.385Z,93735.34
2022-11-21T11:45:35.660Z,93739.59
2022-11-21T11:47:54.825Z,93730.75
2022-11-21T11:50:14.066Z,93747.91
2022-11-21T11:52:16.012Z,93742.94
2022-11-21T11:54:21.119Z,93742.00
2022-11-21T11:56:26.453Z,93743.91
2022-11-21T11:58:40.752Z,93731.81
2022-11-21T12:00:46.776Z,93733.44
2022-11-21T12:02:57.834Z,93744.03
2022-11-21T12:05:14.691Z,93740.69
2022-11-21T12:10:11.591Z,93738.94
2022-11-21T12:12:31.967Z,93747.47
2022-11-21T12:15:05.974Z,93745.97
2022-11-21T12:17:09.214Z,93748.41
2022-11-21T12:19:14.555Z,93748.25
2022-11-21T12:21:20.958Z,93749.44
2022-11-21T12:23:25.489Z,93753.84
2022-11-21T12:25:32.755Z,93747.97
2022-11-21T12:27:34.477Z,93749.06
2022-11-21T12:30:04.963Z,93753.88
2022-11-21T12:32:09.547Z,93748.09
2022-11-21T12:34:42.442Z,93747.50
2022-11-21T12:36:56.648Z,93756.84
2022-11-21T12:39:13.040Z,93761.09
2022-11-21T12:41:56.725Z,93769.25
2022-11-21T12:44:35.279Z,93760.75
2022-11-21T12:46:53.634Z,93771.56
2022-11-21T12:49:25.278Z,93753.19
2022-11-21T12:51:55.404Z,93756.78
2022-11-21T12:54:23.298Z,93751.31
2022-11-21T12:56:49.924Z,93754.34
2022-11-21T12:58:53.333Z,93756.03
2022-11-21T13:01:21.753Z,93770.75
2022-11-21T13:03:29.882Z,93767.53
2022-11-21T13:05:35.984Z,93776.16
2022-11-21T13:07:38.279Z,93775.34
2022-11-21T13:09:42.117Z,93764.88
2022-11-21T13:11:59.794Z,93773.78
2022-11-21T13:14:30.999Z,93782.50
2022-11-21T13:16:39.641Z,93785.28
2022-11-21T13:18:48.259Z,93779.59
2022-11-21T13:20:51.938Z,93772.22
2022-11-21T13:22:58.581Z,93775.78
2022-11-21T13:25:01.280Z,93778.00
2022-11-21T13:27:02.980Z,93777.50
2022-11-21T13:29:11.595Z,93778.69
2022-11-21T13:31:32.367Z,93785.88
2022-11-21T13:33:39.882Z,93781.19
2022-11-21T13:35:50.644Z,93777.81
2022-11-21T13:37:55.284Z,93786.44
2022-11-21T13:40:32.001Z,93782.25
2022-11-21T13:45:52.888Z,93776.59
2022-11-21T13:48:05.040Z,93781.56
2022-11-21T13:50:25.511Z,93789.91
2022-11-21T13:52:49.153Z,93782.44
2022-11-21T13:55:02.363Z,93788.81
2022-11-21T13:57:07.122Z,93794.84
2022-11-21T13:59:30.680Z,93794.66
2022-11-21T14:01:54.068Z,93789.34
2022-11-21T14:04:21.680Z,93785.00
2022-11-21T14:06:33.429Z,93782.25
2022-11-21T14:08:35.692Z,93783.63
2022-11-21T14:10:37.288Z,93777.28
2022-11-21T14:12:44.679Z,93779.72
2022-11-21T14:15:01.924Z,93778.19
2022-11-21T14:17:14.388Z,93776.75
2022-11-21T14:19:22.943Z,93776.00
2022-11-21T14:21:28.150Z,93779.75
2022-11-21T14:23:31.806Z,93781.31
2022-11-21T14:25:37.891Z,93776.09
2022-11-21T14:27:45.134Z,93789.31
2022-11-21T14:29:47.062Z,93782.53
2022-11-21T14:31:49.582Z,93780.22
2022-11-21T14:33:57.631Z,93791.22
2022-11-21T14:36:03.222Z,93790.47
2022-11-21T14:38:06.578Z,93797.00
2022-11-21T14:40:12.806Z,93789.59
2022-11-21T14:42:17.527Z,93779.06
2022-11-21T14:44:21.957Z,93781.16
2022-11-21T14:46:26.776Z,93799.59
2022-11-21T14:48:31.812Z,93799.50
2022-11-21T14:50:34.893Z,93806.72
2022-11-21T14:52:36.662Z,93805.78
2022-11-21T14:55:06.323Z,93797.97
2022-11-21T14:57:08.620Z,93811.78
2022-11-21T14:59:19.907Z,93825.13
2022-11-21T15:01:34.626Z,93832.38
2022-11-21T15:03:36.352Z,93834.69
2022-11-21T15:06:01.360Z,93824.16
2022-11-21T15:08:17.109Z,93826.63
2022-11-21T15:10:36.129Z,93818.00
2022-11-21T15:12:48.501Z,93821.38
2022-11-21T15:15:02.334Z,93826.59
2022-11-21T15:17:06.355Z,93833.06
2022-11-21T15:19:11.298Z,93849.53
2022-11-21T15:21:15.198Z,93844.09
2022-11-21T15:23:27.026Z,93827.78
2022-11-21T15:25:30.873Z,93819.91
2022-11-21T15:27:33.269Z,93826.59
2022-11-21T15:29:34.981Z,93819.47
2022-11-21T15:31:36.605Z,93813.03
2022-11-21T15:34:27.355Z,93819.81
2022-11-21T15:36:19.340Z,93820.69
2022-11-21T15:38:28.211Z,93819.94
2022-11-21T15:40:29.798Z,93824.84
2022-11-21T15:42:31.634Z,93827.94
2022-11-21T15:44:33.511Z,93823.00
2022-11-21T15:46:42.375Z,93819.88
2022-11-21T15:48:49.002Z,93821.38
2022-11-21T15:50:54.518Z,93817.84
2022-11-21T15:52:59.188Z,93820.31
2022-11-21T15:55:00.809Z,93822.25
2022-11-21T15:57:02.495Z,93822.59
2022-11-21T15:59:04.142Z,93815.78
2022-11-21T16:01:06.064Z,93825.78
2022-11-21T16:03:07.727Z,93827.72
2022-11-21T16:05:15.728Z,93819.50
2022-11-21T16:07:17.706Z,93824.09
2022-11-21T16:09:19.357Z,93833.06
2022-11-21T16:11:28.838Z,93827.22
2022-11-21T16:13:30.491Z,93842.25
2022-11-21T16:15:32.214Z,93828.81
2022-11-21T16:17:33.874Z,93831.28
2022-11-21T16:19:35.526Z,93830.31
2022-11-21T16:21:37.345Z,93820.72
2022-11-21T16:23:39.432Z,93827.09
2022-11-21T16:25:52.839Z,93826.97
2022-11-21T16:27:54.436Z,93838.94
2022-11-21T16:29:56.058Z,93845.28
2022-11-21T16:31:57.893Z,93837.34
2022-11-21T16:34:00.705Z,93840.13
2022-11-21T16:36:02.420Z,93853.84
2022-11-21T16:38:07.746Z,93851.97
2022-11-21T16:40:10.999Z,93855.91
2022-11-21T16:42:12.756Z,93858.69
2022-11-21T16:44:15.739Z,93860.94
2022-11-21T16:46:17.985Z,93856.13
2022-11-21T16:48:20.869Z,93858.69
2022-11-21T16:50:22.575Z,93865.31
2022-11-21T16:52:24.162Z,93876.03
2022-11-21T16:54:25.847Z,93877.34
2022-11-21T16:56:28.073Z,93892.94
2022-11-21T16:58:30.166Z,93887.06
2022-11-21T17:00:32.759Z,93901.25
2022-11-21T17:02:37.037Z,93889.00
2022-11-21T17:04:38.660Z,93882.19
2022-11-21T17:06:40.322Z,93890.88
2022-11-21T17:08:42.130Z,93912.13
2022-11-21T17:10:43.753Z,93912.06
2022-11-21T17:12:45.451Z,93910.75
2022-11-21T17:14:47.989Z,93912.88
2022-11-21T17:16:50.974Z,93909.03
2022-11-21T17:18:57.168Z,93914.72
2022-11-21T17:20:59.205Z,93923.94
2022-11-21T17:23:00.809Z,93917.88
2022-11-21T17:25:02.477Z,93930.19
2022-11-21T17:27:04.101Z,93933.88
2022-11-21T17:29:05.769Z,93934.16
2022-11-21T17:31:09.266Z,93937.13
2022-11-21T17:33:11.057Z,93931.38
2022-11-21T17:35:12.776Z,93931.41
2022-11-21T17:37:14.916Z,93930.47
2022-11-21T17:39:18.169Z,93936.34
2022-11-21T17:41:21.283Z,93940.41
2022-11-21T17:43:22.958Z,93947.25
2022-11-21T17:45:24.561Z,93945.88
2022-11-21T17:47:26.228Z,93953.00
2022-11-21T17:49:30.404Z,93950.16
2022-11-21T17:51:35.344Z,93959.97
2022-11-21T17:53:39.064Z,93949.59
2022-11-21T17:55:40.730Z,93960.53
2022-11-21T17:57:42.335Z,93963.72
2022-11-21T17:59:45.141Z,93962.22
2022-11-21T18:01:46.965Z,93964.75
2022-11-21T18:03:53.651Z,93969.34
2022-11-21T18:06:13.758Z,93965.72
2022-11-21T18:08:15.607Z,93970.88
2022-11-21T18:10:41.594Z,93964.03
2022-11-21T18:12:39.002Z,93969.44
2022-11-21T18:14:40.673Z,93967.53
2022-11-21T18:16:47.598Z,93965.06
2022-11-21T18:18:52.951Z,93967.66
2022-11-21T18:20:54.630Z,93963.88
2022-11-21T18:22:56.652Z,93970.94
2022-11-21T18:24:58.375Z,93962.03
2022-11-21T18:26:59.967Z,93965.31
2022-11-21T18:31:27.176Z,93965.78
2022-11-21T18:33:28.727Z,93967.59
2022-11-21T18:35:30.336Z,93962.72
2022-11-21T18:37:34.243Z,93973.25
2022-11-21T18:39:35.778Z,93967.81
2022-11-21T18:41:40.038Z,93967.88
2022-11-21T18:43:43.567Z,93964.03
2022-11-21T18:45:45.161Z,93965.94
2022-11-21T18:47:47.887Z,93960.75
2022-11-21T18:49:50.055Z,93960.97
2022-11-21T18:51:51.721Z,93963.66
2022-11-21T18:53:58.339Z,93962.78
2022-11-21T18:56:04.911Z,93959.22
2022-11-21T18:58:06.658Z,93962.31
2022-11-21T19:00:08.964Z,93966.41
2022-11-21T19:02:10.646Z,93960.38
2022-11-21T19:04:12.442Z,93965.44
2022-11-21T19:06:20.485Z,93970.78
2022-11-21T19:08:22.096Z,93970.66
2022-11-21T19:12:45.662Z,93969.66
2022-11-21T19:14:47.817Z,93977.41
2022-11-21T19:16:49.546Z,93983.78
2022-11-21T19:19:18.644Z,93984.34
2022-11-21T19:21:14.637Z,93987.91
2022-11-21T19:23:16.224Z,93995.63
2022-11-21T19:25:17.915Z,93992.06
2022-11-21T19:27:24.302Z,93986.50
2022-11-21T19:29:27.197Z,93991.94
2022-11-21T19:31:29.711Z,93984.28
2022-11-21T19:33:32.548Z,93990.81
2022-11-21T19:35:34.287Z,93982.22
2022-11-21T19:37:36.447Z,93992.16
2022-11-21T19:39:38.304Z,93992.63
2022-11-21T19:41:40.329Z,94000.41
2022-11-21T19:43:59.330Z,94010.03
2022-11-21T19:46:04.055Z,94007.44
2022-11-21T19:48:05.993Z,94014.97
2022-11-21T19:50:08.073Z,94008.97
2022-11-21T19:52:11.400Z,94004.44
2022-11-21T19:54:13.997Z,94001.38
2022-11-21T19:56:17.783Z,94001.66
2022-11-21T19:58:19.980Z,94002.47
2022-11-21T20:00:22.877Z,94005.59
2022-11-21T20:02:25.036Z,93999.81
2022-11-21T20:04:27.071Z,94002.19
2022-11-21T20:06:37.712Z,94006.94
2022-11-21T20:08:39.455Z,94012.38
2022-11-21T20:11:07.318Z,94019.38
2022-11-21T20:13:09.024Z,94034.81
2022-11-21T20:15:10.866Z,94036.88
2022-11-21T20:17:12.477Z,94048.09
2022-11-21T20:19:18.456Z,94046.84
2022-11-21T20:21:26.779Z,94052.41
2022-11-21T20:23:28.446Z,94053.66
2022-11-21T20:25:30.061Z,94048.97
2022-11-21T20:27:31.684Z,94042.66
2022-11-21T20:29:33.256Z,94045.25
2022-11-21T20:31:37.336Z,94044.00
2022-11-21T20:33:41.769Z,94049.88
2022-11-21T20:35:44.353Z,94052.84
2022-11-21T20:37:46.102Z,94049.13
2022-11-21T20:39:48.355Z,94050.09
2022-11-21T20:41:50.165Z,94052.13
2022-11-21T20:46:25.124Z,94053.25
2022-11-21T20:48:26.729Z,94050.84
2022-11-21T20:51:11.020Z,94048.09
2022-11-21T20:55:20.551Z,94055.47
2022-11-21T20:57:22.588Z,94054.50
2022-11-21T20:59:25.816Z,94059.31
2022-11-21T21:01:27.895Z,94053.06
2022-11-21T21:03:30.598Z,94058.66
2022-11-21T21:05:33.146Z,94060.66
2022-11-21T21:07:35.011Z,94059.03
2022-11-21T21:09:36.800Z,94056.41
2022-11-21T21:11:52.134Z,94053.81
2022-11-21T21:13:54.395Z,94060.94
2022-11-21T21:15:56.339Z,94055.75
2022-11-21T21:17:57.922Z,94059.03
2022-11-21T21:19:59.469Z,94059.16
2022-11-21T21:22:01.283Z,94058.25
2022-11-21T21:24:05.156Z,94063.78
2022-11-21T21:26:20.014Z,94063.47
2022-11-21T21:28:21.644Z,94059.06
2022-11-21T21:30:23.570Z,94059.88
2022-11-21T21:32:25.404Z,94062.75
2022-11-21T21:34:27.005Z,94062.06
2022-11-21T21:36:28.810Z,94064.81
2022-11-21T21:38:30.507Z,94057.97
2022-11-21T21:40:33.131Z,94053.88
2022-11-21T21:42:34.735Z,94054.88
2022-11-21T21:44:37.213Z,94050.38
2022-11-21T21:46:39.020Z,94048.88
2022-11-21T21:48:42.423Z,94050.94
2022-11-21T21:50:44.065Z,94062.88
2022-11-21T21:52:45.773Z,94065.47
2022-11-21T21:54:47.722Z,94063.81
2022-11-21T21:56:49.825Z,94074.84
2022-11-21T21:58:51.739Z,94078.91
2022-11-21T22:00:53.453Z,94083.44
2022-11-21T22:02:55.054Z,94072.91
2022-11-21T22:04:56.682Z,94080.94
2022-11-21T22:06:59.704Z,94080.19
2022-11-21T22:09:02.219Z,94085.69
2022-11-21T22:11:09.266Z,94087.31
2022-11-21T22:13:10.926Z,94100.31
2022-11-21T22:15:12.670Z,94093.50
2022-11-21T22:17:14.390Z,94085.69
2022-11-21T22:19:16.115Z,94098.41
2022-11-21T22:21:28.032Z,94093.03
2022-11-21T22:23:30.672Z,94092.50
2022-11-21T22:25:32.350Z,94093.06
2022-11-21T22:27:34.041Z,94097.53
2022-11-21T22:29:35.643Z,94094.75
2022-11-21T22:31:37.588Z,94092.59
2022-11-21T22:33:40.419Z,94087.53
2022-11-21T22:35:42.064Z,94085.81
2022-11-21T22:37:43.726Z,94081.94
2022-11-21T22:39:45.322Z,94086.56
2022-11-21T22:41:46.898Z,94081.94
2022-11-21T22:43:57.315Z,94088.50
2022-11-21T22:46:03.092Z,94091.38
2022-11-21T22:48:05.809Z,94087.16
2022-11-21T22:50:08.057Z,94095.13
2022-11-21T22:52:09.709Z,94095.22
2022-11-21T22:54:11.439Z,94093.69
2022-11-21T22:56:13.083Z,94094.38
2022-11-21T22:58:14.684Z,94098.28
2022-11-21T23:00:17.182Z,94097.34
2022-11-21T23:02:19.050Z,94091.84
2022-11-21T23:04:20.655Z,94098.16
2022-11-21T23:06:24.240Z,94104.84
2022-11-21T23:08:26.033Z,94105.03
2022-11-21T23:10:27.692Z,94103.78
2022-11-21T23:12:30.689Z,94102.69
2022-11-21T23:14:32.344Z,94112.50
2022-11-21T23:16:33.935Z,94104.56
2022-11-21T23:18:35.934Z,94100.31
2022-11-21T23:20:37.592Z,94102.66
2022-11-21T23:22:42.113Z,94096.91
2022-11-21T23:24:43.711Z,94099.06
2022-11-21T23:26:45.368Z,94091.41
2022-11-21T23:28:47.267Z,94090.59
2022-11-21T23:31:01.253Z,94097.13
2022-11-21T23:33:21.280Z,94097.28
2022-11-21T23:35:22.904Z,94087.81
2022-11-21T23:37:24.591Z,94089.78
2022-11-21T23:39:26.450Z,94091.41
2022-11-21T23:41:28.085Z,94093.19
2022-11-21T23:43:29.687Z,94087.53
2022-11-21T23:45:31.320Z,94100.22
2022-11-21T23:47:32.973Z,94095.34
2022-11-21T23:49:34.557Z,94093.41
2022-11-21T23:51:36.441Z,94089.78
2022-11-21T23:53:38.060Z,94100.16
2022-11-21T23:55:39.623Z,94107.53
2022-11-21T23:57:41.339Z,94100.53
2022-11-21T23:59:43.021Z,94096.72
